sensor_id;sensor_type;location;lat;lon;timestamp;temperature;humidity
580;DHT22;276;48.392;9.950;2023-06-24T00:00:49;20.30;99.90
580;DHT22;276;48.392;9.950;2023-06-24T00:03:20;20.30;99.90
580;DHT22;276;48.392;9.950;2023-06-24T00:05:48;20.30;99.90
580;DHT22;276;48.392;9.950;2023-06-24T00:08:19;20.30;99.90
580;DHT22;276;48.392;9.950;2023-06-24T00:10:48;20.30;99.90
580;DHT22;276;48.392;9.950;2023-06-24T00:13:15;20.20;99.90
580;DHT22;276;48.392;9.950;2023-06-24T00:15:41;20.20;99.90
580;DHT22;276;48.392;9.950;2023-06-24T00:18:09;20.20;99.90
580;DHT22;276;48.392;9.950;2023-06-24T00:20:35;20.20;99.90
580;DHT22;276;48.392;9.950;2023-06-24T00:23:03;20.20;99.90
580;DHT22;276;48.392;9.950;2023-06-24T00:25:31;20.20;99.90
580;DHT22;276;48.392;9.950;2023-06-24T00:28:00;20.20;99.90
580;DHT22;276;48.392;9.950;2023-06-24T00:30:27;20.20;99.90
580;DHT22;276;48.392;9.950;2023-06-24T00:32:53;20.20;99.90
580;DHT22;276;48.392;9.950;2023-06-24T00:35:19;20.20;99.90
580;DHT22;276;48.392;9.950;2023-06-24T00:37:44;20.20;99.90
580;DHT22;276;48.392;9.950;2023-06-24T00:40:12;20.20;99.90
580;DHT22;276;48.392;9.950;2023-06-24T00:42:43;20.20;99.90
580;DHT22;276;48.392;9.950;2023-06-24T00:45:10;20.20;99.90
580;DHT22;276;48.392;9.950;2023-06-24T00:47:36;20.20;99.90
580;DHT22;276;48.392;9.950;2023-06-24T00:50:04;20.20;99.90
580;DHT22;276;48.392;9.950;2023-06-24T00:52:30;20.20;99.90
580;DHT22;276;48.392;9.950;2023-06-24T00:54:56;20.20;99.90
580;DHT22;276;48.392;9.950;2023-06-24T00:57:22;20.20;99.90
580;DHT22;276;48.392;9.950;2023-06-24T00:59:51;20.20;99.90
580;DHT22;276;48.392;9.950;2023-06-24T01:02:21;20.10;99.90
580;DHT22;276;48.392;9.950;2023-06-24T01:04:48;20.10;99.90
580;DHT22;276;48.392;9.950;2023-06-24T01:07:19;20.10;99.90
580;DHT22;276;48.392;9.950;2023-06-24T01:09:45;20.10;99.90
580;DHT22;276;48.392;9.950;2023-06-24T01:12:11;20.10;99.90
580;DHT22;276;48.392;9.950;2023-06-24T01:14:36;20.10;99.90
580;DHT22;276;48.392;9.950;2023-06-24T01:17:15;20.10;99.90
580;DHT22;276;48.392;9.950;2023-06-24T01:20:11;20.10;99.90
580;DHT22;276;48.392;9.950;2023-06-24T01:33:26;20.00;99.90
580;DHT22;276;48.392;9.950;2023-06-24T01:35:57;20.00;99.90
580;DHT22;276;48.392;9.950;2023-06-24T01:38:43;20.00;99.90
580;DHT22;276;48.392;9.950;2023-06-24T01:41:11;20.00;99.90
580;DHT22;276;48.392;9.950;2023-06-24T01:43:42;20.00;99.90
580;DHT22;276;48.392;9.950;2023-06-24T01:46:12;20.00;99.90
580;DHT22;276;48.392;9.950;2023-06-24T01:48:42;20.00;99.90
580;DHT22;276;48.392;9.950;2023-06-24T01:51:11;20.00;99.90
580;DHT22;276;48.392;9.950;2023-06-24T01:53:41;20.00;99.90
580;DHT22;276;48.392;9.950;2023-06-24T01:56:12;20.00;99.90
580;DHT22;276;48.392;9.950;2023-06-24T01:58:43;20.00;99.90
580;DHT22;276;48.392;9.950;2023-06-24T02:01:15;20.00;99.90
580;DHT22;276;48.392;9.950;2023-06-24T02:03:42;20.00;99.90
580;DHT22;276;48.392;9.950;2023-06-24T02:06:08;20.00;99.90
580;DHT22;276;48.392;9.950;2023-06-24T02:08:40;20.00;99.90
580;DHT22;276;48.392;9.950;2023-06-24T02:11:10;20.00;99.90
580;DHT22;276;48.392;9.950;2023-06-24T02:13:38;19.90;99.90
580;DHT22;276;48.392;9.950;2023-06-24T02:16:06;19.90;99.90
580;DHT22;276;48.392;9.950;2023-06-24T02:18:35;19.90;99.90
580;DHT22;276;48.392;9.950;2023-06-24T02:21:05;19.90;99.90
580;DHT22;276;48.392;9.950;2023-06-24T02:23:32;19.90;99.90
580;DHT22;276;48.392;9.950;2023-06-24T02:26:00;19.90;99.90
580;DHT22;276;48.392;9.950;2023-06-24T02:28:26;19.90;99.90
580;DHT22;276;48.392;9.950;2023-06-24T02:30:54;19.80;99.90
580;DHT22;276;48.392;9.950;2023-06-24T02:33:19;19.80;99.90
580;DHT22;276;48.392;9.950;2023-06-24T02:35:45;19.80;99.90
580;DHT22;276;48.392;9.950;2023-06-24T02:38:12;19.70;99.90
580;DHT22;276;48.392;9.950;2023-06-24T02:40:37;19.70;99.90
580;DHT22;276;48.392;9.950;2023-06-24T02:43:05;19.70;99.90
580;DHT22;276;48.392;9.950;2023-06-24T02:45:31;19.70;99.90
580;DHT22;276;48.392;9.950;2023-06-24T02:47:57;19.60;99.90
580;DHT22;276;48.392;9.950;2023-06-24T02:50:23;19.60;99.90
580;DHT22;276;48.392;9.950;2023-06-24T02:52:51;19.60;99.90
580;DHT22;276;48.392;9.950;2023-06-24T02:55:22;19.60;99.90
580;DHT22;276;48.392;9.950;2023-06-24T02:57:50;19.60;99.90
580;DHT22;276;48.392;9.950;2023-06-24T03:00:17;19.50;99.90
580;DHT22;276;48.392;9.950;2023-06-24T03:02:46;19.50;99.90
580;DHT22;276;48.392;9.950;2023-06-24T03:05:12;19.50;99.90
580;DHT22;276;48.392;9.950;2023-06-24T03:07:38;19.40;99.90
580;DHT22;276;48.392;9.950;2023-06-24T03:10:06;19.40;99.90
580;DHT22;276;48.392;9.950;2023-06-24T03:12:35;19.40;99.90
580;DHT22;276;48.392;9.950;2023-06-24T03:15:00;19.30;99.90
580;DHT22;276;48.392;9.950;2023-06-24T03:17:32;19.30;99.90
580;DHT22;276;48.392;9.950;2023-06-24T03:19:57;19.30;99.90
580;DHT22;276;48.392;9.950;2023-06-24T03:22:24;19.30;99.90
580;DHT22;276;48.392;9.950;2023-06-24T03:24:49;19.30;99.90
580;DHT22;276;48.392;9.950;2023-06-24T03:27:16;19.20;99.90
580;DHT22;276;48.392;9.950;2023-06-24T03:29:46;19.20;99.90
580;DHT22;276;48.392;9.950;2023-06-24T03:32:12;19.10;99.90
580;DHT22;276;48.392;9.950;2023-06-24T03:34:40;19.10;99.90
580;DHT22;276;48.392;9.950;2023-06-24T03:37:11;19.10;99.90
580;DHT22;276;48.392;9.950;2023-06-24T03:39:36;19.00;99.90
580;DHT22;276;48.392;9.950;2023-06-24T03:42:02;19.00;99.90
580;DHT22;276;48.392;9.950;2023-06-24T03:44:30;19.00;99.90
580;DHT22;276;48.392;9.950;2023-06-24T03:46:56;18.90;99.90
580;DHT22;276;48.392;9.950;2023-06-24T03:49:23;18.90;99.90
580;DHT22;276;48.392;9.950;2023-06-24T03:51:49;18.90;99.90
580;DHT22;276;48.392;9.950;2023-06-24T03:54:15;18.90;99.90
580;DHT22;276;48.392;9.950;2023-06-24T03:56:40;18.90;99.90
580;DHT22;276;48.392;9.950;2023-06-24T03:59:08;18.90;99.90
580;DHT22;276;48.392;9.950;2023-06-24T04:01:34;18.90;99.90
580;DHT22;276;48.392;9.950;2023-06-24T04:04:04;18.90;99.90
580;DHT22;276;48.392;9.950;2023-06-24T04:06:34;18.80;99.90
580;DHT22;276;48.392;9.950;2023-06-24T04:09:02;18.80;99.90
580;DHT22;276;48.392;9.950;2023-06-24T04:11:27;18.80;99.90
580;DHT22;276;48.392;9.950;2023-06-24T04:13:53;18.80;99.90
580;DHT22;276;48.392;9.950;2023-06-24T04:16:19;18.80;99.90
580;DHT22;276;48.392;9.950;2023-06-24T04:18:44;18.80;99.90
580;DHT22;276;48.392;9.950;2023-06-24T04:21:10;18.80;99.90
580;DHT22;276;48.392;9.950;2023-06-24T04:23:37;18.80;99.90
580;DHT22;276;48.392;9.950;2023-06-24T04:26:04;18.80;99.90
580;DHT22;276;48.392;9.950;2023-06-24T04:28:29;18.90;99.90
580;DHT22;276;48.392;9.950;2023-06-24T04:31:03;18.90;99.90
580;DHT22;276;48.392;9.950;2023-06-24T04:33:29;18.90;99.90
580;DHT22;276;48.392;9.950;2023-06-24T04:35:54;19.00;99.90
580;DHT22;276;48.392;9.950;2023-06-24T04:38:22;19.00;99.90
580;DHT22;276;48.392;9.950;2023-06-24T04:40:48;19.00;99.90
580;DHT22;276;48.392;9.950;2023-06-24T04:43:14;19.10;99.90
580;DHT22;276;48.392;9.950;2023-06-24T04:45:40;19.10;99.90
580;DHT22;276;48.392;9.950;2023-06-24T04:48:08;19.20;99.90
580;DHT22;276;48.392;9.950;2023-06-24T04:50:36;19.20;99.90
580;DHT22;276;48.392;9.950;2023-06-24T04:53:04;19.30;99.90
580;DHT22;276;48.392;9.950;2023-06-24T04:55:29;19.30;99.90
580;DHT22;276;48.392;9.950;2023-06-24T04:57:55;19.30;99.90
580;DHT22;276;48.392;9.950;2023-06-24T05:00:21;19.40;99.90
580;DHT22;276;48.392;9.950;2023-06-24T05:02:51;19.40;99.90
580;DHT22;276;48.392;9.950;2023-06-24T05:05:19;19.50;99.90
580;DHT22;276;48.392;9.950;2023-06-24T05:07:47;19.50;99.90
580;DHT22;276;48.392;9.950;2023-06-24T05:10:15;19.60;99.90
580;DHT22;276;48.392;9.950;2023-06-24T05:12:43;19.60;99.90
580;DHT22;276;48.392;9.950;2023-06-24T05:15:09;19.60;99.90
580;DHT22;276;48.392;9.950;2023-06-24T05:17:35;19.70;99.90
580;DHT22;276;48.392;9.950;2023-06-24T05:20:01;19.70;99.90
580;DHT22;276;48.392;9.950;2023-06-24T05:22:26;19.80;99.90
580;DHT22;276;48.392;9.950;2023-06-24T05:24:52;19.90;99.90
580;DHT22;276;48.392;9.950;2023-06-24T05:27:20;19.90;99.90
580;DHT22;276;48.392;9.950;2023-06-24T05:29:45;20.00;99.90
580;DHT22;276;48.392;9.950;2023-06-24T05:32:11;20.00;99.90
580;DHT22;276;48.392;9.950;2023-06-24T05:34:36;20.10;99.90
580;DHT22;276;48.392;9.950;2023-06-24T05:37:02;20.20;99.90
580;DHT22;276;48.392;9.950;2023-06-24T05:39:31;20.20;99.90
580;DHT22;276;48.392;9.950;2023-06-24T05:41:57;20.30;99.90
580;DHT22;276;48.392;9.950;2023-06-24T05:44:22;20.30;99.90
580;DHT22;276;48.392;9.950;2023-06-24T05:46:51;20.40;99.90
580;DHT22;276;48.392;9.950;2023-06-24T05:49:16;20.40;99.90
580;DHT22;276;48.392;9.950;2023-06-24T05:51:42;20.50;99.90
580;DHT22;276;48.392;9.950;2023-06-24T05:54:10;20.60;99.90
580;DHT22;276;48.392;9.950;2023-06-24T05:56:35;20.60;99.90
580;DHT22;276;48.392;9.950;2023-06-24T05:59:02;20.70;99.90
580;DHT22;276;48.392;9.950;2023-06-24T06:01:27;20.80;99.90
580;DHT22;276;48.392;9.950;2023-06-24T06:03:55;20.90;99.90
580;DHT22;276;48.392;9.950;2023-06-24T06:06:25;20.90;99.90
580;DHT22;276;48.392;9.950;2023-06-24T06:08:53;21.00;99.90
580;DHT22;276;48.392;9.950;2023-06-24T06:11:21;21.10;99.90
580;DHT22;276;48.392;9.950;2023-06-24T06:13:47;21.10;99.90
580;DHT22;276;48.392;9.950;2023-06-24T06:16:14;21.20;99.90
580;DHT22;276;48.392;9.950;2023-06-24T06:18:45;21.30;99.90
580;DHT22;276;48.392;9.950;2023-06-24T06:21:11;21.30;99.90
580;DHT22;276;48.392;9.950;2023-06-24T06:23:36;21.40;99.90
580;DHT22;276;48.392;9.950;2023-06-24T06:26:02;21.40;99.90
580;DHT22;276;48.392;9.950;2023-06-24T06:28:29;21.40;99.90
580;DHT22;276;48.392;9.950;2023-06-24T06:30:55;21.40;99.90
580;DHT22;276;48.392;9.950;2023-06-24T06:33:22;21.50;99.90
580;DHT22;276;48.392;9.950;2023-06-24T06:35:50;21.60;99.90
580;DHT22;276;48.392;9.950;2023-06-24T06:38:21;21.70;99.90
580;DHT22;276;48.392;9.950;2023-06-24T06:40:46;21.80;99.90
580;DHT22;276;48.392;9.950;2023-06-24T06:43:12;21.90;99.90
580;DHT22;276;48.392;9.950;2023-06-24T06:45:37;21.90;99.20
580;DHT22;276;48.392;9.950;2023-06-24T06:48:03;21.90;99.00
580;DHT22;276;48.392;9.950;2023-06-24T06:50:33;21.90;98.90
580;DHT22;276;48.392;9.950;2023-06-24T06:53:01;21.90;98.90
580;DHT22;276;48.392;9.950;2023-06-24T06:55:27;22.00;98.90
580;DHT22;276;48.392;9.950;2023-06-24T06:57:53;22.10;98.50
580;DHT22;276;48.392;9.950;2023-06-24T07:00:18;22.00;98.50
580;DHT22;276;48.392;9.950;2023-06-24T07:02:44;22.10;98.60
580;DHT22;276;48.392;9.950;2023-06-24T07:05:10;22.20;98.90
580;DHT22;276;48.392;9.950;2023-06-24T07:07:39;22.30;99.10
580;DHT22;276;48.392;9.950;2023-06-24T07:10:10;22.30;99.00
580;DHT22;276;48.392;9.950;2023-06-24T07:12:36;22.40;98.90
580;DHT22;276;48.392;9.950;2023-06-24T07:15:02;22.50;98.60
580;DHT22;276;48.392;9.950;2023-06-24T07:17:27;22.60;98.20
580;DHT22;276;48.392;9.950;2023-06-24T07:19:53;22.70;97.80
580;DHT22;276;48.392;9.950;2023-06-24T07:22:21;22.80;97.50
580;DHT22;276;48.392;9.950;2023-06-24T07:24:46;22.80;97.20
580;DHT22;276;48.392;9.950;2023-06-24T07:27:14;22.80;96.70
580;DHT22;276;48.392;9.950;2023-06-24T07:29:40;22.80;95.90
580;DHT22;276;48.392;9.950;2023-06-24T07:32:07;22.80;95.90
580;DHT22;276;48.392;9.950;2023-06-24T07:34:37;22.90;95.90
580;DHT22;276;48.392;9.950;2023-06-24T07:37:05;22.90;95.90
580;DHT22;276;48.392;9.950;2023-06-24T07:39:30;23.00;95.90
580;DHT22;276;48.392;9.950;2023-06-24T07:41:56;23.00;95.50
580;DHT22;276;48.392;9.950;2023-06-24T07:44:22;23.10;95.40
580;DHT22;276;48.392;9.950;2023-06-24T07:46:50;23.10;94.60
580;DHT22;276;48.392;9.950;2023-06-24T07:49:17;23.00;94.90
580;DHT22;276;48.392;9.950;2023-06-24T07:51:43;23.10;95.30
580;DHT22;276;48.392;9.950;2023-06-24T07:54:10;23.30;95.40
580;DHT22;276;48.392;9.950;2023-06-24T07:56:38;23.40;95.50
580;DHT22;276;48.392;9.950;2023-06-24T07:59:04;23.60;95.10
580;DHT22;276;48.392;9.950;2023-06-24T08:01:29;23.70;94.90
580;DHT22;276;48.392;9.950;2023-06-24T08:04:02;23.70;94.70
580;DHT22;276;48.392;9.950;2023-06-24T08:06:30;23.80;94.40
580;DHT22;276;48.392;9.950;2023-06-24T08:08:56;23.90;94.60
580;DHT22;276;48.392;9.950;2023-06-24T08:11:22;24.00;94.80
580;DHT22;276;48.392;9.950;2023-06-24T08:13:50;24.10;94.50
580;DHT22;276;48.392;9.950;2023-06-24T08:16:17;24.20;94.40
580;DHT22;276;48.392;9.950;2023-06-24T08:18:44;24.40;94.40
580;DHT22;276;48.392;9.950;2023-06-24T08:21:12;24.50;94.40
580;DHT22;276;48.392;9.950;2023-06-24T08:23:37;24.60;94.30
580;DHT22;276;48.392;9.950;2023-06-24T08:26:03;24.80;94.20
580;DHT22;276;48.392;9.950;2023-06-24T08:28:29;24.90;94.30
580;DHT22;276;48.392;9.950;2023-06-24T08:30:54;25.00;93.60
580;DHT22;276;48.392;9.950;2023-06-24T08:33:22;25.10;93.60
580;DHT22;276;48.392;9.950;2023-06-24T08:35:52;25.10;92.40
580;DHT22;276;48.392;9.950;2023-06-24T08:38:18;25.20;92.80
580;DHT22;276;48.392;9.950;2023-06-24T08:40:46;25.30;92.70
580;DHT22;276;48.392;9.950;2023-06-24T08:43:15;25.40;92.60
580;DHT22;276;48.392;9.950;2023-06-24T08:45:41;25.60;92.80
580;DHT22;276;48.392;9.950;2023-06-24T08:48:06;25.80;92.00
580;DHT22;276;48.392;9.950;2023-06-24T08:50:37;26.00;91.90
580;DHT22;276;48.392;9.950;2023-06-24T08:53:07;26.00;91.50
580;DHT22;276;48.392;9.950;2023-06-24T08:55:39;25.90;90.60
580;DHT22;276;48.392;9.950;2023-06-24T08:58:07;25.80;90.70
580;DHT22;276;48.392;9.950;2023-06-24T09:00:35;25.60;90.60
580;DHT22;276;48.392;9.950;2023-06-24T09:03:03;25.50;90.90
580;DHT22;276;48.392;9.950;2023-06-24T09:05:29;25.40;91.20
580;DHT22;276;48.392;9.950;2023-06-24T09:07:54;25.30;91.50
580;DHT22;276;48.392;9.950;2023-06-24T09:10:36;25.20;91.60
580;DHT22;276;48.392;9.950;2023-06-24T09:13:04;25.00;91.30
580;DHT22;276;48.392;9.950;2023-06-24T09:15:34;25.00;91.70
580;DHT22;276;48.392;9.950;2023-06-24T09:18:00;25.10;92.20
580;DHT22;276;48.392;9.950;2023-06-24T09:20:29;25.10;92.10
580;DHT22;276;48.392;9.950;2023-06-24T09:23:00;25.30;92.40
580;DHT22;276;48.392;9.950;2023-06-24T09:25:26;25.50;92.40
580;DHT22;276;48.392;9.950;2023-06-24T09:27:52;25.60;91.70
580;DHT22;276;48.392;9.950;2023-06-24T09:30:19;25.60;91.20
580;DHT22;276;48.392;9.950;2023-06-24T09:32:46;25.60;90.70
580;DHT22;276;48.392;9.950;2023-06-24T09:35:12;25.50;90.70
580;DHT22;276;48.392;9.950;2023-06-24T09:37:38;25.60;90.40
580;DHT22;276;48.392;9.950;2023-06-24T09:40:04;25.60;90.10
580;DHT22;276;48.392;9.950;2023-06-24T09:42:32;25.60;90.10
580;DHT22;276;48.392;9.950;2023-06-24T09:44:57;25.70;90.60
580;DHT22;276;48.392;9.950;2023-06-24T09:47:26;25.90;90.10
580;DHT22;276;48.392;9.950;2023-06-24T09:49:53;26.00;89.50
580;DHT22;276;48.392;9.950;2023-06-24T09:52:19;26.20;88.30
580;DHT22;276;48.392;9.950;2023-06-24T09:54:47;26.30;87.40
580;DHT22;276;48.392;9.950;2023-06-24T09:57:18;26.50;85.70
580;DHT22;276;48.392;9.950;2023-06-24T09:59:48;26.50;84.30
580;DHT22;276;48.392;9.950;2023-06-24T10:02:15;26.60;84.10
580;DHT22;276;48.392;9.950;2023-06-24T10:04:41;26.50;84.20
580;DHT22;276;48.392;9.950;2023-06-24T10:07:14;26.50;84.10
580;DHT22;276;48.392;9.950;2023-06-24T10:09:40;26.50;84.20
580;DHT22;276;48.392;9.950;2023-06-24T10:12:09;26.60;84.20
580;DHT22;276;48.392;9.950;2023-06-24T10:14:37;26.60;84.40
580;DHT22;276;48.392;9.950;2023-06-24T10:17:05;26.60;84.30
580;DHT22;276;48.392;9.950;2023-06-24T10:19:42;26.50;82.80
580;DHT22;276;48.392;9.950;2023-06-24T10:22:11;26.50;81.50
580;DHT22;276;48.392;9.950;2023-06-24T10:24:42;26.50;81.80
580;DHT22;276;48.392;9.950;2023-06-24T10:27:09;26.50;81.70
580;DHT22;276;48.392;9.950;2023-06-24T10:29:39;26.60;82.00
580;DHT22;276;48.392;9.950;2023-06-24T10:32:08;26.70;83.20
580;DHT22;276;48.392;9.950;2023-06-24T10:34:42;26.70;83.20
580;DHT22;276;48.392;9.950;2023-06-24T10:37:12;26.70;81.70
580;DHT22;276;48.392;9.950;2023-06-24T10:44:50;26.60;81.10
580;DHT22;276;48.392;9.950;2023-06-24T10:47:16;26.70;80.90
580;DHT22;276;48.392;9.950;2023-06-24T10:49:42;26.80;79.80
580;DHT22;276;48.392;9.950;2023-06-24T10:52:09;26.80;78.30
580;DHT22;276;48.392;9.950;2023-06-24T10:54:37;26.80;77.20
580;DHT22;276;48.392;9.950;2023-06-24T10:57:04;26.80;75.90
580;DHT22;276;48.392;9.950;2023-06-24T10:59:34;26.80;76.80
580;DHT22;276;48.392;9.950;2023-06-24T11:02:02;26.80;77.00
580;DHT22;276;48.392;9.950;2023-06-24T11:04:28;26.70;77.20
580;DHT22;276;48.392;9.950;2023-06-24T11:07:01;26.70;78.00
580;DHT22;276;48.392;9.950;2023-06-24T11:09:29;26.80;77.50
580;DHT22;276;48.392;9.950;2023-06-24T11:11:55;26.70;76.10
580;DHT22;276;48.392;9.950;2023-06-24T11:14:21;26.80;75.00
580;DHT22;276;48.392;9.950;2023-06-24T11:16:52;26.80;74.70
580;DHT22;276;48.392;9.950;2023-06-24T11:19:18;26.80;74.40
580;DHT22;276;48.392;9.950;2023-06-24T11:21:43;26.80;74.40
580;DHT22;276;48.392;9.950;2023-06-24T11:24:09;26.80;73.10
580;DHT22;276;48.392;9.950;2023-06-24T11:26:39;26.90;73.90
580;DHT22;276;48.392;9.950;2023-06-24T11:29:11;26.90;74.70
580;DHT22;276;48.392;9.950;2023-06-24T11:31:39;26.90;74.70
580;DHT22;276;48.392;9.950;2023-06-24T11:34:08;26.80;74.80
580;DHT22;276;48.392;9.950;2023-06-24T11:36:35;26.80;74.70
580;DHT22;276;48.392;9.950;2023-06-24T11:39:03;26.70;74.20
580;DHT22;276;48.392;9.950;2023-06-24T11:41:29;26.70;73.40
580;DHT22;276;48.392;9.950;2023-06-24T11:43:58;26.80;74.40
580;DHT22;276;48.392;9.950;2023-06-24T11:46:30;26.80;73.20
580;DHT22;276;48.392;9.950;2023-06-24T11:49:07;26.80;72.80
580;DHT22;276;48.392;9.950;2023-06-24T11:51:35;26.80;72.20
580;DHT22;276;48.392;9.950;2023-06-24T11:54:06;26.80;72.30
580;DHT22;276;48.392;9.950;2023-06-24T11:56:36;26.80;72.90
580;DHT22;276;48.392;9.950;2023-06-24T11:59:06;26.80;72.70
580;DHT22;276;48.392;9.950;2023-06-24T12:01:32;26.70;72.50
580;DHT22;276;48.392;9.950;2023-06-24T12:04:03;26.60;72.50
580;DHT22;276;48.392;9.950;2023-06-24T12:06:34;26.60;72.40
580;DHT22;276;48.392;9.950;2023-06-24T12:09:02;26.60;72.20
580;DHT22;276;48.392;9.950;2023-06-24T12:11:28;26.70;73.40
580;DHT22;276;48.392;9.950;2023-06-24T12:13:53;26.80;73.90
580;DHT22;276;48.392;9.950;2023-06-24T12:16:19;26.90;73.60
580;DHT22;276;48.392;9.950;2023-06-24T12:18:44;27.00;73.70
580;DHT22;276;48.392;9.950;2023-06-24T12:21:12;27.00;72.20
580;DHT22;276;48.392;9.950;2023-06-24T12:23:40;27.00;71.50
580;DHT22;276;48.392;9.950;2023-06-24T12:26:06;27.00;71.20
580;DHT22;276;48.392;9.950;2023-06-24T12:28:31;26.90;70.10
580;DHT22;276;48.392;9.950;2023-06-24T12:30:57;26.90;70.60
580;DHT22;276;48.392;9.950;2023-06-24T12:33:23;26.90;72.20
580;DHT22;276;48.392;9.950;2023-06-24T12:35:49;27.00;72.90
580;DHT22;276;48.392;9.950;2023-06-24T12:38:14;27.00;70.90
580;DHT22;276;48.392;9.950;2023-06-24T12:40:41;27.00;71.00
580;DHT22;276;48.392;9.950;2023-06-24T12:43:10;27.00;72.40
580;DHT22;276;48.392;9.950;2023-06-24T12:45:39;27.10;72.40
580;DHT22;276;48.392;9.950;2023-06-24T12:48:05;27.20;71.40
580;DHT22;276;48.392;9.950;2023-06-24T12:50:30;27.20;69.40
580;DHT22;276;48.392;9.950;2023-06-24T12:52:58;27.10;68.50
580;DHT22;276;48.392;9.950;2023-06-24T12:55:24;27.00;69.00
580;DHT22;276;48.392;9.950;2023-06-24T12:57:49;27.00;69.50
580;DHT22;276;48.392;9.950;2023-06-24T13:00:20;27.00;69.00
580;DHT22;276;48.392;9.950;2023-06-24T13:02:47;27.00;68.40
580;DHT22;276;48.392;9.950;2023-06-24T13:05:12;27.00;69.50
580;DHT22;276;48.392;9.950;2023-06-24T13:07:38;26.90;70.20
580;DHT22;276;48.392;9.950;2023-06-24T13:10:04;26.90;70.60
580;DHT22;276;48.392;9.950;2023-06-24T13:12:34;26.90;70.30
580;DHT22;276;48.392;9.950;2023-06-24T13:15:00;26.90;71.10
580;DHT22;276;48.392;9.950;2023-06-24T13:17:25;26.90;70.80
580;DHT22;276;48.392;9.950;2023-06-24T13:19:51;26.90;71.00
580;DHT22;276;48.392;9.950;2023-06-24T13:22:17;26.90;70.90
580;DHT22;276;48.392;9.950;2023-06-24T13:24:44;26.90;70.50
580;DHT22;276;48.392;9.950;2023-06-24T13:27:14;26.90;70.60
580;DHT22;276;48.392;9.950;2023-06-24T13:29:40;26.90;71.90
580;DHT22;276;48.392;9.950;2023-06-24T13:32:11;26.90;72.50
580;DHT22;276;48.392;9.950;2023-06-24T13:34:36;26.90;71.30
580;DHT22;276;48.392;9.950;2023-06-24T13:37:04;26.90;71.30
580;DHT22;276;48.392;9.950;2023-06-24T13:39:30;26.90;71.60
580;DHT22;276;48.392;9.950;2023-06-24T13:41:56;26.90;72.00
580;DHT22;276;48.392;9.950;2023-06-24T13:44:22;26.90;71.00
580;DHT22;276;48.392;9.950;2023-06-24T13:46:51;26.80;70.90
580;DHT22;276;48.392;9.950;2023-06-24T13:49:18;26.80;71.60
580;DHT22;276;48.392;9.950;2023-06-24T13:51:46;26.80;70.90
580;DHT22;276;48.392;9.950;2023-06-24T13:54:12;26.90;71.70
580;DHT22;276;48.392;9.950;2023-06-24T13:56:38;26.90;71.30
580;DHT22;276;48.392;9.950;2023-06-24T13:59:03;26.80;70.90
580;DHT22;276;48.392;9.950;2023-06-24T14:01:31;26.80;71.70
580;DHT22;276;48.392;9.950;2023-06-24T14:04:00;26.70;71.70
580;DHT22;276;48.392;9.950;2023-06-24T14:06:25;26.70;72.00
580;DHT22;276;48.392;9.950;2023-06-24T14:08:51;26.70;71.00
580;DHT22;276;48.392;9.950;2023-06-24T14:11:17;26.60;70.80
580;DHT22;276;48.392;9.950;2023-06-24T14:13:44;26.60;69.70
580;DHT22;276;48.392;9.950;2023-06-24T14:16:10;26.50;69.40
580;DHT22;276;48.392;9.950;2023-06-24T14:18:37;26.50;70.30
580;DHT22;276;48.392;9.950;2023-06-24T14:21:04;26.50;70.90
580;DHT22;276;48.392;9.950;2023-06-24T14:23:32;26.50;71.90
580;DHT22;276;48.392;9.950;2023-06-24T14:25:59;26.50;71.60
580;DHT22;276;48.392;9.950;2023-06-24T14:28:25;26.50;71.90
580;DHT22;276;48.392;9.950;2023-06-24T14:30:51;26.50;72.00
580;DHT22;276;48.392;9.950;2023-06-24T14:33:19;26.50;72.30
580;DHT22;276;48.392;9.950;2023-06-24T14:35:48;26.60;72.40
580;DHT22;276;48.392;9.950;2023-06-24T14:38:16;26.50;71.90
580;DHT22;276;48.392;9.950;2023-06-24T14:40:41;26.50;72.10
580;DHT22;276;48.392;9.950;2023-06-24T14:43:09;26.60;72.90
580;DHT22;276;48.392;9.950;2023-06-24T14:45:36;26.60;72.90
580;DHT22;276;48.392;9.950;2023-06-24T14:48:02;26.60;72.70
580;DHT22;276;48.392;9.950;2023-06-24T14:50:30;26.60;72.70
580;DHT22;276;48.392;9.950;2023-06-24T14:52:58;26.60;72.80
580;DHT22;276;48.392;9.950;2023-06-24T14:55:23;26.60;72.70
580;DHT22;276;48.392;9.950;2023-06-24T14:57:49;26.50;72.60
580;DHT22;276;48.392;9.950;2023-06-24T15:00:15;26.50;73.10
580;DHT22;276;48.392;9.950;2023-06-24T15:02:46;26.50;73.90
580;DHT22;276;48.392;9.950;2023-06-24T15:05:11;26.40;72.40
580;DHT22;276;48.392;9.950;2023-06-24T15:07:41;26.40;72.20
580;DHT22;276;48.392;9.950;2023-06-24T15:10:07;26.40;72.60
580;DHT22;276;48.392;9.950;2023-06-24T15:12:37;26.40;72.70
580;DHT22;276;48.392;9.950;2023-06-24T15:15:05;26.40;72.70
580;DHT22;276;48.392;9.950;2023-06-24T15:17:31;26.40;72.20
580;DHT22;276;48.392;9.950;2023-06-24T15:19:59;26.40;71.90
580;DHT22;276;48.392;9.950;2023-06-24T15:22:24;26.30;71.40
580;DHT22;276;48.392;9.950;2023-06-24T15:24:52;26.30;71.40
580;DHT22;276;48.392;9.950;2023-06-24T15:27:22;26.20;71.30
580;DHT22;276;48.392;9.950;2023-06-24T15:29:48;26.10;71.50
580;DHT22;276;48.392;9.950;2023-06-24T15:32:16;26.10;71.50
580;DHT22;276;48.392;9.950;2023-06-24T15:34:41;26.10;72.40
580;DHT22;276;48.392;9.950;2023-06-24T15:37:07;26.00;71.40
580;DHT22;276;48.392;9.950;2023-06-24T15:39:33;26.00;71.60
580;DHT22;276;48.392;9.950;2023-06-24T15:42:01;26.00;71.60
580;DHT22;276;48.392;9.950;2023-06-24T15:44:29;26.00;71.40
580;DHT22;276;48.392;9.950;2023-06-24T15:46:58;26.00;71.70
580;DHT22;276;48.392;9.950;2023-06-24T15:49:23;26.00;72.20
580;DHT22;276;48.392;9.950;2023-06-24T15:51:49;25.90;71.70
580;DHT22;276;48.392;9.950;2023-06-24T15:54:14;25.90;72.00
580;DHT22;276;48.392;9.950;2023-06-24T15:56:40;25.90;71.90
580;DHT22;276;48.392;9.950;2023-06-24T15:59:06;25.80;72.00
580;DHT22;276;48.392;9.950;2023-06-24T16:01:36;25.90;72.30
580;DHT22;276;48.392;9.950;2023-06-24T16:04:06;25.90;72.60
580;DHT22;276;48.392;9.950;2023-06-24T16:06:34;26.00;72.80
580;DHT22;276;48.392;9.950;2023-06-24T16:09:00;26.00;72.60
580;DHT22;276;48.392;9.950;2023-06-24T16:11:28;25.90;72.50
580;DHT22;276;48.392;9.950;2023-06-24T16:13:54;25.90;72.70
580;DHT22;276;48.392;9.950;2023-06-24T16:16:19;25.90;72.70
580;DHT22;276;48.392;9.950;2023-06-24T16:18:45;26.00;72.90
580;DHT22;276;48.392;9.950;2023-06-24T16:21:15;26.00;72.50
580;DHT22;276;48.392;9.950;2023-06-24T16:23:41;26.00;72.50
580;DHT22;276;48.392;9.950;2023-06-24T16:26:09;26.00;72.20
580;DHT22;276;48.392;9.950;2023-06-24T16:28:37;25.90;72.00
580;DHT22;276;48.392;9.950;2023-06-24T16:31:02;25.90;72.20
580;DHT22;276;48.392;9.950;2023-06-24T16:33:28;25.90;72.70
580;DHT22;276;48.392;9.950;2023-06-24T16:35:54;25.90;72.50
580;DHT22;276;48.392;9.950;2023-06-24T16:38:19;25.90;72.60
580;DHT22;276;48.392;9.950;2023-06-24T16:40:45;25.80;72.60
580;DHT22;276;48.392;9.950;2023-06-24T16:43:11;25.80;72.60
580;DHT22;276;48.392;9.950;2023-06-24T16:45:36;25.70;72.50
580;DHT22;276;48.392;9.950;2023-06-24T16:48:02;25.80;72.60
580;DHT22;276;48.392;9.950;2023-06-24T16:50:28;25.80;72.70